sensor_id;sensor_type;location;lat;lon;timestamp;P1;durP1;ratioP1;P2;durP2;ratioP2
6436;SDS011;3251;53.550;9.918;2024-02-15T06:46:12;63.90;;;24.17;;
6436;SDS011;3251;53.550;9.918;2024-02-15T06:48:41;61.63;;;23.60;;
6436;SDS011;3251;53.550;9.918;2024-02-15T06:51:12;50.97;;;22.07;;
6436;SDS011;3251;53.550;9.918;2024-02-15T06:53:40;62.10;;;23.00;;
6436;SDS011;3251;53.550;9.918;2024-02-15T06:56:09;59.67;;;22.80;;
6436;SDS011;3251;53.550;9.918;2024-02-15T06:58:35;65.93;;;23.07;;
6436;SDS011;3251;53.550;9.918;2024-02-15T07:01:02;88.60;;;35.33;;
6436;SDS011;3251;53.550;9.918;2024-02-15T07:03:28;67.50;;;25.00;;
6436;SDS011;3251;53.550;9.918;2024-02-15T07:05:57;62.67;;;25.60;;
6436;SDS011;3251;53.550;9.918;2024-02-15T07:08:23;70.13;;;27.47;;
6436;SDS011;3251;53.550;9.918;2024-02-15T07:10:50;81.27;;;31.97;;
6436;SDS011;3251;53.550;9.918;2024-02-15T07:13:19;72.73;;;28.90;;
6436;SDS011;3251;53.550;9.918;2024-02-15T07:15:45;66.27;;;27.50;;
6436;SDS011;3251;53.550;9.918;2024-02-15T07:18:12;71.80;;;25.00;;
6436;SDS011;3251;53.550;9.918;2024-02-15T07:20:42;72.07;;;26.13;;
6436;SDS011;3251;53.550;9.918;2024-02-15T07:23:08;62.90;;;25.63;;
6436;SDS011;3251;53.550;9.918;2024-02-15T07:25:34;58.67;;;21.10;;
6436;SDS011;3251;53.550;9.918;2024-02-15T07:28:01;71.13;;;22.33;;
6436;SDS011;3251;53.550;9.918;2024-02-15T07:30:28;59.57;;;23.60;;
6436;SDS011;3251;53.550;9.918;2024-02-15T07:32:54;60.00;;;23.23;;
6436;SDS011;3251;53.550;9.918;2024-02-15T07:35:20;71.27;;;24.77;;
6436;SDS011;3251;53.550;9.918;2024-02-15T07:37:53;57.07;;;23.73;;
6436;SDS011;3251;53.550;9.918;2024-02-15T07:40:26;61.37;;;24.93;;
6436;SDS011;3251;53.550;9.918;2024-02-15T07:42:56;120.23;;;48.03;;
6436;SDS011;3251;53.550;9.918;2024-02-15T07:45:23;73.73;;;30.50;;
6436;SDS011;3251;53.550;9.918;2024-02-15T07:47:49;60.27;;;27.37;;
6436;SDS011;3251;53.550;9.918;2024-02-15T07:50:16;66.47;;;25.63;;
6436;SDS011;3251;53.550;9.918;2024-02-15T07:52:48;63.17;;;25.40;;
6436;SDS011;3251;53.550;9.918;2024-02-15T07:55:15;56.10;;;24.60;;
6436;SDS011;3251;53.550;9.918;2024-02-15T07:57:41;54.60;;;22.60;;
6436;SDS011;3251;53.550;9.918;2024-02-15T08:00:07;55.77;;;22.47;;
6436;SDS011;3251;53.550;9.918;2024-02-15T08:02:39;50.33;;;22.50;;
6436;SDS011;3251;53.550;9.918;2024-02-15T08:05:06;50.83;;;22.20;;
6436;SDS011;3251;53.550;9.918;2024-02-15T08:07:38;38.17;;;18.67;;
6436;SDS011;3251;53.550;9.918;2024-02-15T08:10:06;50.87;;;22.10;;
6436;SDS011;3251;53.550;9.918;2024-02-15T08:12:38;49.37;;;20.93;;
6436;SDS011;3251;53.550;9.918;2024-02-15T08:15:05;45.10;;;19.80;;
6436;SDS011;3251;53.550;9.918;2024-02-15T08:17:37;49.40;;;20.73;;
6436;SDS011;3251;53.550;9.918;2024-02-15T08:20:05;42.60;;;19.40;;
6436;SDS011;3251;53.550;9.918;2024-02-15T08:22:32;50.10;;;21.17;;
6436;SDS011;3251;53.550;9.918;2024-02-15T08:24:58;46.03;;;20.73;;
6436;SDS011;3251;53.550;9.918;2024-02-15T08:27:25;49.70;;;19.37;;
6436;SDS011;3251;53.550;9.918;2024-02-15T08:29:52;50.27;;;19.50;;
6436;SDS011;3251;53.550;9.918;2024-02-15T08:32:19;40.90;;;17.33;;
6436;SDS011;3251;53.550;9.918;2024-02-15T08:34:45;42.40;;;18.30;;
6436;SDS011;3251;53.550;9.918;2024-02-15T08:37:13;48.30;;;19.03;;
6436;SDS011;3251;53.550;9.918;2024-02-15T08:39:39;37.47;;;16.20;;
6436;SDS011;3251;53.550;9.918;2024-02-15T08:42:05;33.60;;;16.03;;
6436;SDS011;3251;53.550;9.918;2024-02-15T08:44:31;37.87;;;17.43;;
6436;SDS011;3251;53.550;9.918;2024-02-15T08:46:58;31.03;;;14.00;;
6436;SDS011;3251;53.550;9.918;2024-02-15T08:49:24;29.27;;;13.80;;
6436;SDS011;3251;53.550;9.918;2024-02-15T08:51:52;27.63;;;11.60;;
6436;SDS011;3251;53.550;9.918;2024-02-15T08:54:18;20.10;;;10.53;;
6436;SDS011;3251;53.550;9.918;2024-02-15T08:56:46;23.07;;;12.20;;
6436;SDS011;3251;53.550;9.918;2024-02-15T08:59:12;65.83;;;33.13;;
6436;SDS011;3251;53.550;9.918;2024-02-15T09:01:41;34.20;;;16.83;;
6436;SDS011;3251;53.550;9.918;2024-02-15T09:04:08;21.23;;;12.00;;
6436;SDS011;3251;53.550;9.918;2024-02-15T09:06:34;19.73;;;10.20;;
6436;SDS011;3251;53.550;9.918;2024-02-15T09:09:00;19.00;;;11.47;;
6436;SDS011;3251;53.550;9.918;2024-02-15T09:11:28;18.70;;;10.47;;
6436;SDS011;3251;53.550;9.918;2024-02-15T09:13:54;13.80;;;10.03;;
6436;SDS011;3251;53.550;9.918;2024-02-15T09:16:21;16.40;;;10.63;;
6436;SDS011;3251;53.550;9.918;2024-02-15T09:18:47;19.93;;;10.67;;
6436;SDS011;3251;53.550;9.918;2024-02-15T09:21:13;18.47;;;11.43;;
6436;SDS011;3251;53.550;9.918;2024-02-15T09:23:39;29.33;;;12.27;;
6436;SDS011;3251;53.550;9.918;2024-02-15T09:26:05;19.50;;;11.40;;
6436;SDS011;3251;53.550;9.918;2024-02-15T09:28:35;21.90;;;10.80;;
6436;SDS011;3251;53.550;9.918;2024-02-15T09:31:01;22.23;;;10.73;;
6436;SDS011;3251;53.550;9.918;2024-02-15T09:33:27;26.33;;;12.63;;
6436;SDS011;3251;53.550;9.918;2024-02-15T09:35:54;21.43;;;11.37;;
6436;SDS011;3251;53.550;9.918;2024-02-15T09:38:20;26.30;;;12.10;;
6436;SDS011;3251;53.550;9.918;2024-02-15T09:40:49;21.33;;;12.43;;
6436;SDS011;3251;53.550;9.918;2024-02-15T09:43:16;19.57;;;11.60;;
6436;SDS011;3251;53.550;9.918;2024-02-15T09:45:42;23.70;;;10.97;;
6436;SDS011;3251;53.550;9.918;2024-02-15T09:48:10;23.87;;;12.87;;
6436;SDS011;3251;53.550;9.918;2024-02-15T09:50:38;23.50;;;14.13;;
6436;SDS011;3251;53.550;9.918;2024-02-15T09:53:07;23.00;;;12.83;;
6436;SDS011;3251;53.550;9.918;2024-02-15T09:55:34;21.73;;;13.20;;
6436;SDS011;3251;53.550;9.918;2024-02-15T09:58:01;35.97;;;14.73;;
6436;SDS011;3251;53.550;9.918;2024-02-15T10:00:29;35.53;;;14.87;;
6436;SDS011;3251;53.550;9.918;2024-02-15T10:02:56;26.87;;;13.17;;
6436;SDS011;3251;53.550;9.918;2024-02-15T10:05:22;26.27;;;14.97;;
6436;SDS011;3251;53.550;9.918;2024-02-15T10:07:48;32.67;;;17.23;;
6436;SDS011;3251;53.550;9.918;2024-02-15T10:12:47;38.57;;;17.33;;
6436;SDS011;3251;53.550;9.918;2024-02-15T10:17:55;32.73;;;17.40;;
6436;SDS011;3251;53.550;9.918;2024-02-15T10:20:22;26.57;;;15.73;;
6436;SDS011;3251;53.550;9.918;2024-02-15T10:22:52;36.50;;;16.83;;
6436;SDS011;3251;53.550;9.918;2024-02-15T10:25:20;29.90;;;18.47;;
6436;SDS011;3251;53.550;9.918;2024-02-15T10:27:47;33.60;;;17.10;;
6436;SDS011;3251;53.550;9.918;2024-02-15T10:30:22;41.57;;;18.83;;
6436;SDS011;3251;53.550;9.918;2024-02-15T10:32:50;29.53;;;16.30;;
6436;SDS011;3251;53.550;9.918;2024-02-15T10:35:19;33.57;;;18.73;;
6436;SDS011;3251;53.550;9.918;2024-02-15T10:37:46;38.90;;;19.53;;
6436;SDS011;3251;53.550;9.918;2024-02-15T10:40:14;45.23;;;20.20;;
6436;SDS011;3251;53.550;9.918;2024-02-15T10:42:43;39.30;;;19.63;;
6436;SDS011;3251;53.550;9.918;2024-02-15T10:45:11;60.57;;;21.47;;
6436;SDS011;3251;53.550;9.918;2024-02-15T10:47:39;47.63;;;21.57;;
6436;SDS011;3251;53.550;9.918;2024-02-15T10:50:06;49.73;;;23.57;;
6436;SDS011;3251;53.550;9.918;2024-02-15T10:52:32;40.57;;;21.30;;
6436;SDS011;3251;53.550;9.918;2024-02-15T10:57:30;47.97;;;20.90;;
6436;SDS011;3251;53.550;9.918;2024-02-15T11:00:00;51.23;;;24.70;;
6436;SDS011;3251;53.550;9.918;2024-02-15T11:02:41;56.20;;;24.83;;
6436;SDS011;3251;53.550;9.918;2024-02-15T11:05:09;38.63;;;21.33;;
6436;SDS011;3251;53.550;9.918;2024-02-15T11:07:38;49.63;;;22.27;;
6436;SDS011;3251;53.550;9.918;2024-02-15T11:10:05;54.60;;;27.73;;
6436;SDS011;3251;53.550;9.918;2024-02-15T11:12:34;56.77;;;26.87;;
6436;SDS011;3251;53.550;9.918;2024-02-15T11:15:00;45.30;;;24.37;;
6436;SDS011;3251;53.550;9.918;2024-02-15T11:20:05;47.97;;;23.93;;
6436;SDS011;3251;53.550;9.918;2024-02-15T11:22:36;47.37;;;23.90;;
6436;SDS011;3251;53.550;9.918;2024-02-15T11:25:04;44.53;;;25.33;;
6436;SDS011;3251;53.550;9.918;2024-02-15T11:27:35;47.13;;;25.00;;
6436;SDS011;3251;53.550;9.918;2024-02-15T11:30:06;59.80;;;27.40;;
6436;SDS011;3251;53.550;9.918;2024-02-15T11:32:41;46.60;;;25.60;;
6436;SDS011;3251;53.550;9.918;2024-02-15T11:35:16;62.20;;;24.77;;
6436;SDS011;3251;53.550;9.918;2024-02-15T11:40:19;45.07;;;23.60;;
6436;SDS011;3251;53.550;9.918;2024-02-15T11:42:48;49.10;;;25.97;;
6436;SDS011;3251;53.550;9.918;2024-02-15T11:45:15;52.60;;;27.33;;
6436;SDS011;3251;53.550;9.918;2024-02-15T11:47:46;52.10;;;27.33;;
6436;SDS011;3251;53.550;9.918;2024-02-15T11:50:14;47.50;;;25.27;;
6436;SDS011;3251;53.550;9.918;2024-02-15T11:52:40;59.27;;;25.70;;
6436;SDS011;3251;53.550;9.918;2024-02-15T11:55:11;45.80;;;25.17;;
6436;SDS011;3251;53.550;9.918;2024-02-15T11:57:40;58.40;;;25.27;;
6436;SDS011;3251;53.550;9.918;2024-02-15T12:00:22;45.97;;;25.10;;
6436;SDS011;3251;53.550;9.918;2024-02-15T12:03:08;46.90;;;26.47;;
6436;SDS011;3251;53.550;9.918;2024-02-15T12:05:54;60.77;;;28.27;;
6436;SDS011;3251;53.550;9.918;2024-02-15T12:08:38;62.43;;;30.43;;
6436;SDS011;3251;53.550;9.918;2024-02-15T12:11:23;47.43;;;26.73;;
6436;SDS011;3251;53.550;9.918;2024-02-15T12:14:12;53.50;;;29.13;;
6436;SDS011;3251;53.550;9.918;2024-02-15T12:17:00;51.70;;;23.20;;
6436;SDS011;3251;53.550;9.918;2024-02-15T12:19:46;47.20;;;23.17;;
6436;SDS011;3251;53.550;9.918;2024-02-15T12:22:13;40.77;;;22.77;;
6436;SDS011;3251;53.550;9.918;2024-02-15T12:24:39;41.10;;;23.70;;
6436;SDS011;3251;53.550;9.918;2024-02-15T12:27:09;42.03;;;22.07;;
6436;SDS011;3251;53.550;9.918;2024-02-15T12:29:35;31.30;;;18.90;;
6436;SDS011;3251;53.550;9.918;2024-02-15T12:32:01;31.23;;;17.53;;
6436;SDS011;3251;53.550;9.918;2024-02-15T12:34:28;28.37;;;17.67;;
6436;SDS011;3251;53.550;9.918;2024-02-15T12:37:13;23.43;;;16.23;;
6436;SDS011;3251;53.550;9.918;2024-02-15T12:39:39;20.40;;;13.00;;
6436;SDS011;3251;53.550;9.918;2024-02-15T12:42:06;16.60;;;12.83;;
6436;SDS011;3251;53.550;9.918;2024-02-15T12:44:34;18.10;;;13.33;;
6436;SDS011;3251;53.550;9.918;2024-02-15T12:47:01;32.47;;;14.10;;
6436;SDS011;3251;53.550;9.918;2024-02-15T12:49:29;25.97;;;13.70;;
6436;SDS011;3251;53.550;9.918;2024-02-15T12:52:33;21.23;;;14.53;;
6436;SDS011;3251;53.550;9.918;2024-02-15T12:54:42;18.93;;;12.30;;
6436;SDS011;3251;53.550;9.918;2024-02-15T12:57:09;21.17;;;12.30;;
6436;SDS011;3251;53.550;9.918;2024-02-15T12:59:36;24.67;;;11.70;;
6436;SDS011;3251;53.550;9.918;2024-02-15T13:02:02;21.37;;;11.47;;
6436;SDS011;3251;53.550;9.918;2024-02-15T13:04:29;25.43;;;12.97;;
6436;SDS011;3251;53.550;9.918;2024-02-15T13:06:56;14.00;;;10.93;;
6436;SDS011;3251;53.550;9.918;2024-02-15T13:09:22;20.40;;;11.53;;
6436;SDS011;3251;53.550;9.918;2024-02-15T13:11:48;29.30;;;10.73;;
6436;SDS011;3251;53.550;9.918;2024-02-15T13:14:15;17.60;;;10.10;;
6436;SDS011;3251;53.550;9.918;2024-02-15T13:16:42;13.50;;;9.57;;
6436;SDS011;3251;53.550;9.918;2024-02-15T13:19:09;21.43;;;10.60;;
6436;SDS011;3251;53.550;9.918;2024-02-15T13:21:35;12.80;;;9.80;;
6436;SDS011;3251;53.550;9.918;2024-02-15T13:24:02;10.43;;;9.20;;
6436;SDS011;3251;53.550;9.918;2024-02-15T13:26:30;11.63;;;10.20;;
6436;SDS011;3251;53.550;9.918;2024-02-15T13:28:57;26.10;;;10.13;;
6436;SDS011;3251;53.550;9.918;2024-02-15T13:31:24;15.97;;;11.90;;
6436;SDS011;3251;53.550;9.918;2024-02-15T13:33:52;17.37;;;12.63;;
6436;SDS011;3251;53.550;9.918;2024-02-15T13:36:18;20.37;;;10.90;;
6436;SDS011;3251;53.550;9.918;2024-02-15T13:38:45;15.57;;;12.50;;
6436;SDS011;3251;53.550;9.918;2024-02-15T13:41:12;20.90;;;11.57;;
6436;SDS011;3251;53.550;9.918;2024-02-15T13:43:38;18.73;;;10.80;;
6436;SDS011;3251;53.550;9.918;2024-02-15T13:46:06;24.57;;;11.47;;
6436;SDS011;3251;53.550;9.918;2024-02-15T13:48:32;23.73;;;11.83;;
6436;SDS011;3251;53.550;9.918;2024-02-15T13:50:58;15.67;;;9.43;;
6436;SDS011;3251;53.550;9.918;2024-02-15T13:53:24;22.17;;;11.83;;
6436;SDS011;3251;53.550;9.918;2024-02-15T13:55:51;21.47;;;11.73;;
6436;SDS011;3251;53.550;9.918;2024-02-15T13:58:20;15.57;;;10.90;;
6436;SDS011;3251;53.550;9.918;2024-02-15T14:00:47;20.77;;;11.57;;
6436;SDS011;3251;53.550;9.918;2024-02-15T14:03:14;17.47;;;12.17;;
6436;SDS011;3251;53.550;9.918;2024-02-15T14:05:40;26.67;;;10.63;;
6436;SDS011;3251;53.550;9.918;2024-02-15T14:08:07;21.27;;;11.93;;
6436;SDS011;3251;53.550;9.918;2024-02-15T14:10:34;17.40;;;11.20;;
6436;SDS011;3251;53.550;9.918;2024-02-15T14:13:01;15.83;;;13.00;;
6436;SDS011;3251;53.550;9.918;2024-02-15T14:15:32;19.73;;;11.03;;
6436;SDS011;3251;53.550;9.918;2024-02-15T14:18:12;15.20;;;11.23;;
6436;SDS011;3251;53.550;9.918;2024-02-15T14:20:43;12.50;;;9.90;;
6436;SDS011;3251;53.550;9.918;2024-02-15T14:23:12;10.83;;;8.50;;
6436;SDS011;3251;53.550;9.918;2024-02-15T14:25:38;13.37;;;9.93;;
6436;SDS011;3251;53.550;9.918;2024-02-15T14:28:05;13.47;;;8.73;;
6436;SDS011;3251;53.550;9.918;2024-02-15T14:30:33;18.83;;;9.90;;
6436;SDS011;3251;53.550;9.918;2024-02-15T14:33:18;14.03;;;10.17;;
6436;SDS011;3251;53.550;9.918;2024-02-15T14:35:45;19.07;;;10.23;;
6436;SDS011;3251;53.550;9.918;2024-02-15T14:38:12;13.00;;;10.90;;
6436;SDS011;3251;53.550;9.918;2024-02-15T14:40:42;14.17;;;11.23;;
6436;SDS011;3251;53.550;9.918;2024-02-15T14:43:11;15.60;;;10.23;;
6436;SDS011;3251;53.550;9.918;2024-02-15T14:45:40;11.97;;;10.67;;
6436;SDS011;3251;53.550;9.918;2024-02-15T14:48:07;11.37;;;10.13;;
6436;SDS011;3251;53.550;9.918;2024-02-15T14:50:38;18.57;;;11.13;;
6436;SDS011;3251;53.550;9.918;2024-02-15T14:53:04;15.50;;;11.50;;
6436;SDS011;3251;53.550;9.918;2024-02-15T14:55:33;19.50;;;10.90;;
6436;SDS011;3251;53.550;9.918;2024-02-15T14:57:59;20.47;;;11.77;;
6436;SDS011;3251;53.550;9.918;2024-02-15T15:00:25;12.90;;;10.80;;
6436;SDS011;3251;53.550;9.918;2024-02-15T15:02:52;15.07;;;10.03;;
6436;SDS011;3251;53.550;9.918;2024-02-15T15:05:21;12.30;;;9.80;;
6436;SDS011;3251;53.550;9.918;2024-02-15T15:08:06;14.10;;;9.73;;
6436;SDS011;3251;53.550;9.918;2024-02-15T15:10:51;13.33;;;9.47;;
6436;SDS011;3251;53.550;9.918;2024-02-15T15:13:36;13.93;;;11.00;;
6436;SDS011;3251;53.550;9.918;2024-02-15T15:16:02;12.30;;;11.00;;
6436;SDS011;3251;53.550;9.918;2024-02-15T15:18:29;15.77;;;12.50;;
6436;SDS011;3251;53.550;9.918;2024-02-15T15:20:58;13.40;;;10.97;;
6436;SDS011;3251;53.550;9.918;2024-02-15T15:23:25;13.07;;;9.90;;
6436;SDS011;3251;53.550;9.918;2024-02-15T15:25:52;15.53;;;10.43;;
6436;SDS011;3251;53.550;9.918;2024-02-15T15:28:18;16.37;;;13.30;;
6436;SDS011;3251;53.550;9.918;2024-02-15T15:30:44;20.07;;;12.93;;
6436;SDS011;3251;53.550;9.918;2024-02-15T15:33:17;22.30;;;13.10;;
6436;SDS011;3251;53.550;9.918;2024-02-15T15:35:43;25.43;;;11.83;;
6436;SDS011;3251;53.550;9.918;2024-02-15T15:38:10;12.03;;;10.60;;
6436;SDS011;3251;53.550;9.918;2024-02-15T15:40:36;22.33;;;12.37;;
6436;SDS011;3251;53.550;9.918;2024-02-15T15:43:03;36.20;;;21.67;;
6436;SDS011;3251;53.550;9.918;2024-02-15T15:45:36;37.70;;;16.73;;
6436;SDS011;3251;53.550;9.918;2024-02-15T15:48:02;18.17;;;12.00;;
6436;SDS011;3251;53.550;9.918;2024-02-15T15:50:29;14.93;;;10.13;;
6436;SDS011;3251;53.550;9.918;2024-02-15T15:53:01;14.43;;;12.13;;
6436;SDS011;3251;53.550;9.918;2024-02-15T15:55:27;20.63;;;13.03;;
6436;SDS011;3251;53.550;9.918;2024-02-15T15:57:53;27.27;;;15.10;;
6436;SDS011;3251;53.550;9.918;2024-02-15T16:00:20;18.40;;;12.03;;
6436;SDS011;3251;53.550;9.918;2024-02-15T16:02:46;25.83;;;12.83;;
6436;SDS011;3251;53.550;9.918;2024-02-15T16:05:12;17.13;;;12.50;;
6436;SDS011;3251;53.550;9.918;2024-02-15T16:07:38;18.00;;;12.57;;
6436;SDS011;3251;53.550;9.918;2024-02-15T16:10:06;12.50;;;10.60;;
6436;SDS011;3251;53.550;9.918;2024-02-15T16:12:34;18.40;;;12.20;;
6436;SDS011;3251;53.550;9.918;2024-02-15T16:15:01;18.60;;;12.27;;
6436;SDS011;3251;53.550;9.918;2024-02-15T16:17:31;18.23;;;11.80;;
6436;SDS011;3251;53.550;9.918;2024-02-15T16:19:57;45.23;;;27.40;;
6436;SDS011;3251;53.550;9.918;2024-02-15T16:22:23;27.50;;;16.70;;
6436;SDS011;3251;53.550;9.918;2024-02-15T16:24:50;23.17;;;12.80;;
6436;SDS011;3251;53.550;9.918;2024-02-15T16:27:16;24.83;;;16.23;;
6436;SDS011;3251;53.550;9.918;2024-02-15T16:29:42;14.27;;;11.10;;
6436;SDS011;3251;53.550;9.918;2024-02-15T16:32:08;14.67;;;11.80;;
6436;SDS011;3251;53.550;9.918;2024-02-15T16:34:34;15.40;;;10.70;;
6436;SDS011;3251;53.550;9.918;2024-02-15T16:37:00;10.90;;;9.80;;
6436;SDS011;3251;53.550;9.918;2024-02-15T16:39:28;19.50;;;10.43;;
6436;SDS011;3251;53.550;9.918;2024-02-15T16:41:55;12.87;;;11.10;;
6436;SDS011;3251;53.550;9.918;2024-02-15T16:44:22;16.93;;;11.30;;
6436;SDS011;3251;53.550;9.918;2024-02-15T16:46:48;16.43;;;11.20;;
6436;SDS011;3251;53.550;9.918;2024-02-15T16:49:14;22.83;;;11.20;;
6436;SDS011;3251;53.550;9.918;2024-02-15T16:51:40;15.07;;;10.80;;
6436;SDS011;3251;53.550;9.918;2024-02-15T16:54:08;12.67;;;11.47;;
6436;SDS011;3251;53.550;9.918;2024-02-15T16:56:34;21.90;;;12.27;;
6436;SDS011;3251;53.550;9.918;2024-02-15T16:59:02;14.23;;;10.10;;
6436;SDS011;3251;53.550;9.918;2024-02-15T17:01:28;18.00;;;11.57;;
6436;SDS011;3251;53.550;9.918;2024-02-15T17:03:55;18.03;;;12.20;;
6436;SDS011;3251;53.550;9.918;2024-02-15T17:06:22;18.27;;;11.77;;
6436;SDS011;3251;53.550;9.918;2024-02-15T17:08:48;19.87;;;12.73;;
6436;SDS011;3251;53.550;9.918;2024-02-15T17:11:20;15.33;;;13.20;;
6436;SDS011;3251;53.550;9.918;2024-02-15T17:13:47;17.50;;;11.73;;
6436;SDS011;3251;53.550;9.918;2024-02-15T17:16:14;25.67;;;11.17;;
6436;SDS011;3251;53.550;9.918;2024-02-15T17:18:41;15.97;;;11.97;;
6436;SDS011;3251;53.550;9.918;2024-02-15T17:21:07;16.03;;;13.20;;
6436;SDS011;3251;53.550;9.918;2024-02-15T17:23:34;18.47;;;12.70;;
6436;SDS011;3251;53.550;9.918;2024-02-15T17:26:00;20.20;;;12.60;;
6436;SDS011;3251;53.550;9.918;2024-02-15T17:28:26;31.63;;;12.80;;
6436;SDS011;3251;53.550;9.918;2024-02-15T17:30:53;23.90;;;13.43;;
6436;SDS011;3251;53.550;9.918;2024-02-15T17:33:19;19.93;;;13.73;;
6436;SDS011;3251;53.550;9.918;2024-02-15T17:35:46;22.20;;;12.77;;
6436;SDS011;3251;53.550;9.918;2024-02-15T17:38:16;13.67;;;11.80;;
6436;SDS011;3251;53.550;9.918;2024-02-15T17:40:42;27.03;;;12.27;;
6436;SDS011;3251;53.550;9.918;2024-02-15T17:43:08;22.37;;;11.57;;
6436;SDS011;3251;53.550;9.918;2024-02-15T17:45:34;43.23;;;13.73;;
6436;SDS011;3251;53.550;9.918;2024-02-15T17:48:01;20.47;;;13.80;;
6436;SDS011;3251;53.550;9.918;2024-02-15T17:50:27;20.10;;;12.47;;
6436;SDS011;3251;53.550;9.918;2024-02-15T17:52:53;26.33;;;13.40;;
6436;SDS011;3251;53.550;9.918;2024-02-15T17:55:19;17.60;;;12.10;;
6436;SDS011;3251;53.550;9.918;2024-02-15T17:57:47;22.20;;;10.87;;
6436;SDS011;3251;53.550;9.918;2024-02-15T18:00:14;14.67;;;12.00;;
6436;SDS011;3251;53.550;9.918;2024-02-15T18:02:41;17.37;;;10.97;;
6436;SDS011;3251;53.550;9.918;2024-02-15T18:05:16;16.27;;;13.13;;
6436;SDS011;3251;53.550;9.918;2024-02-15T18:07:42;17.83;;;11.03;;
6436;SDS011;3251;53.550;9.918;2024-02-15T18:10:09;12.00;;;10.70;;
6436;SDS011;3251;53.550;9.918;2024-02-15T18:12:38;14.10;;;11.10;;
6436;SDS011;3251;53.550;9.918;2024-02-15T18:15:08;12.73;;;10.83;;
6436;SDS011;3251;53.550;9.918;2024-02-15T18:17:38;15.97;;;12.57;;
6436;SDS011;3251;53.550;9.918;2024-02-15T18:20:09;15.00;;;9.63;;
6436;SDS011;3251;53.550;9.918;2024-02-15T18:22:38;33.77;;;23.07;;
6436;SDS011;3251;53.550;9.918;2024-02-15T18:25:04;34.60;;;20.70;;
6436;SDS011;3251;53.550;9.918;2024-02-15T18:27:32;39.60;;;21.20;;
6436;SDS011;3251;53.550;9.918;2024-02-15T18:30:00;30.30;;;13.20;;
6436;SDS011;3251;53.550;9.918;2024-02-15T18:32:26;18.70;;;10.90;;
6436;SDS011;3251;53.550;9.918;2024-02-15T18:34:52;16.37;;;10.30;;
6436;SDS011;3251;53.550;9.918;2024-02-15T18:37:18;18.40;;;13.57;;
6436;SDS011;3251;53.550;9.918;2024-02-15T18:39:44;22.27;;;11.77;;
6436;SDS011;3251;53.550;9.918;2024-02-15T18:42:10;18.80;;;11.60;;
6436;SDS011;3251;53.550;9.918;2024-02-15T18:44:37;19.70;;;13.93;;
6436;SDS011;3251;53.550;9.918;2024-02-15T18:47:03;14.20;;;12.17;;
6436;SDS011;3251;53.550;9.918;2024-02-15T18:49:29;17.17;;;14.57;;
6436;SDS011;3251;53.550;9.918;2024-02-15T18:51:55;35.00;;;21.77;;
6436;SDS011;3251;53.550;9.918;2024-02-15T18:54:21;27.37;;;16.87;;
6436;SDS011;3251;53.550;9.918;2024-02-15T18:56:47;22.10;;;13.93;;
6436;SDS011;3251;53.550;9.918;2024-02-15T18:59:15;15.97;;;12.30;;
6436;SDS011;3251;53.550;9.918;2024-02-15T19:01:42;17.90;;;14.93;;
6436;SDS011;3251;53.550;9.918;2024-02-15T19:04:08;29.00;;;16.03;;
6436;SDS011;3251;53.550;9.918;2024-02-15T19:06:34;44.53;;;28.03;;
6436;SDS011;3251;53.550;9.918;2024-02-15T19:09:05;36.70;;;19.37;;
6436;SDS011;3251;53.550;9.918;2024-02-15T19:11:32;17.60;;;13.40;;
6436;SDS011;3251;53.550;9.918;2024-02-15T19:13:58;27.97;;;12.90;;
6436;SDS011;3251;53.550;9.918;2024-02-15T19:16:24;19.57;;;11.30;;
6436;SDS011;3251;53.550;9.918;2024-02-15T19:18:52;14.93;;;10.77;;
6436;SDS011;3251;53.550;9.918;2024-02-15T19:21:19;13.83;;;12.40;;
6436;SDS011;3251;53.550;9.918;2024-02-15T19:23:47;19.00;;;9.97;;
6436;SDS011;3251;53.550;9.918;2024-02-15T19:26:13;23.00;;;9.87;;
6436;SDS011;3251;53.550;9.918;2024-02-15T19:28:39;20.13;;;9.80;;
6436;SDS011;3251;53.550;9.918;2024-02-15T19:31:07;18.40;;;10.33;;
6436;SDS011;3251;53.550;9.918;2024-02-15T19:33:33;16.60;;;10.43;;
6436;SDS011;3251;53.550;9.918;2024-02-15T19:35:59;13.63;;;8.50;;
6436;SDS011;3251;53.550;9.918;2024-02-15T19:38:25;14.40;;;10.20;;
6436;SDS011;3251;53.550;9.918;2024-02-15T19:40:52;16.37;;;9.10;;
6436;SDS011;3251;53.550;9.918;2024-02-15T19:43:19;13.13;;;9.43;;
6436;SDS011;3251;53.550;9.918;2024-02-15T19:45:46;15.97;;;9.53;;
6436;SDS011;3251;53.550;9.918;2024-02-15T19:48:12;13.33;;;8.93;;
6436;SDS011;3251;53.550;9.918;2024-02-15T19:50:38;19.37;;;9.67;;
6436;SDS011;3251;53.550;9.918;2024-02-15T19:53:04;15.13;;;9.57;;
6436;SDS011;3251;53.550;9.918;2024-02-15T19:55:32;13.50;;;9.93;;
6436;SDS011;3251;53.550;9.918;2024-02-15T19:57:59;20.23;;;9.90;;
6436;SDS011;3251;53.550;9.918;2024-02-15T20:00:25;22.67;;;9.33;;
6436;SDS011;3251;53.550;9.918;2024-02-15T20:02:51;21.43;;;9.50;;
6436;SDS011;3251;53.550;9.918;2024-02-15T20:05:18;13.43;;;10.27;;
6436;SDS011;3251;53.550;9.918;2024-02-15T20:07:44;21.37;;;12.47;;
6436;SDS011;3251;53.550;9.918;2024-02-15T20:10:10;17.23;;;9.83;;
6436;SDS011;3251;53.550;9.918;2024-02-15T20:12:37;23.33;;;9.87;;
6436;SDS011;3251;53.550;9.918;2024-02-15T20:15:03;14.53;;;9.73;;
6436;SDS011;3251;53.550;9.918;2024-02-15T20:17:33;21.13;;;10.07;;
6436;SDS011;3251;53.550;9.918;2024-02-15T20:20:00;22.00;;;9.97;;
6436;SDS011;3251;53.550;9.918;2024-02-15T20:22:26;23.50;;;9.03;;
6436;SDS011;3251;53.550;9.918;2024-02-15T20:24:53;21.80;;;10.67;;
6436;SDS011;3251;53.550;9.918;2024-02-15T20:27:19;10.93;;;7.57;;
6436;SDS011;3251;53.550;9.918;2024-02-15T20:29:46;15.37;;;9.80;;
6436;SDS011;3251;53.550;9.918;2024-02-15T20:32:15;20.57;;;8.80;;
6436;SDS011;3251;53.550;9.918;2024-02-15T20:34:44;15.13;;;10.73;;
6436;SDS011;3251;53.550;9.918;2024-02-15T20:37:11;11.90;;;9.17;;
6436;SDS011;3251;53.550;9.918;2024-02-15T20:39:37;11.27;;;9.47;;
6436;SDS011;3251;53.550;9.918;2024-02-15T20:42:03;15.50;;;8.87;;
6436;SDS011;3251;53.550;9.918;2024-02-15T20:44:30;24.93;;;10.37;;
6436;SDS011;3251;53.550;9.918;2024-02-15T20:46:56;22.97;;;11.60;;
6436;SDS011;3251;53.550;9.918;2024-02-15T20:49:22;13.70;;;8.97;;
6436;SDS011;3251;53.550;9.918;2024-02-15T20:51:50;24.97;;;12.10;;
6436;SDS011;3251;53.550;9.918;2024-02-15T20:54:17;62.33;;;15.17;;
6436;SDS011;3251;53.550;9.918;2024-02-15T20:56:43;73.87;;;34.30;;
6436;SDS011;3251;53.550;9.918;2024-02-15T20:59:12;28.73;;;14.37;;
6436;SDS011;3251;53.550;9.918;2024-02-15T21:01:39;59.80;;;25.77;;
6436;SDS011;3251;53.550;9.918;2024-02-15T21:04:06;58.43;;;35.50;;
6436;SDS011;3251;53.550;9.918;2024-02-15T21:06:35;42.97;;;21.33;;
6436;SDS011;3251;53.550;9.918;2024-02-15T21:09:02;26.63;;;16.93;;
6436;SDS011;3251;53.550;9.918;2024-02-15T21:11:29;36.87;;;22.10;;
6436;SDS011;3251;53.550;9.918;2024-02-15T21:13:56;11.63;;;10.40;;
6436;SDS011;3251;53.550;9.918;2024-02-15T21:16:25;21.67;;;13.30;;
6436;SDS011;3251;53.550;9.918;2024-02-15T21:18:56;18.97;;;11.00;;
6436;SDS011;3251;53.550;9.918;2024-02-15T21:21:24;14.20;;;9.83;;
6436;SDS011;3251;53.550;9.918;2024-02-15T21:23:50;16.17;;;9.77;;
6436;SDS011;3251;53.550;9.918;2024-02-15T21:26:17;16.27;;;8.00;;
6436;SDS011;3251;53.550;9.918;2024-02-15T21:28:46;11.63;;;10.07;;
6436;SDS011;3251;53.550;9.918;2024-02-15T21:31:13;16.50;;;8.90;;
6436;SDS011;3251;53.550;9.918;2024-02-15T21:33:46;27.83;;;17.20;;
6436;SDS011;3251;53.550;9.918;2024-02-15T21:36:14;23.77;;;10.37;;
6436;SDS011;3251;53.550;9.918;2024-02-15T21:38:44;10.20;;;7.70;;
6436;SDS011;3251;53.550;9.918;2024-02-15T21:41:11;15.73;;;9.10;;
6436;SDS011;3251;53.550;9.918;2024-02-15T21:43:37;16.37;;;11.10;;
6436;SDS011;3251;53.550;9.918;2024-02-15T21:46:03;11.00;;;8.17;;
6436;SDS011;3251;53.550;9.918;2024-02-15T21:48:30;19.10;;;8.90;;
6436;SDS011;3251;53.550;9.918;2024-02-15T21:50:56;15.03;;;8.20;;
6436;SDS011;3251;53.550;9.918;2024-02-15T21:53:23;9.03;;;7.70;;